Deatsville, Alabama
Current Conditions -  °F | °C
As of 9:15 PM on Tuesday 25 Nov 2014 (Local Time) from K1A9 Reporting Station
Scattered Clouds Scattered Clouds  
Wind Chill: 51°   Ceiling: Unl
Heat Index: 51°   Visibility: 10mi
Dew Point: 33°   Wind: 5mph
Humidity: 51%   Direction: 310°NW
Pressure: 30.09"   Gusts: NA
Location:  32.61°N, 86.4°W
Report Text: K1A9 260315Z AUTO 31004KT 10SM SCT110 11/01 A3009 RMK AO2 T01050008
Loading
Personal Weather Stations






























Interactive Weather Map New forecast layout! Learn more

10-Day Weather Forecast

Advertisements
Track Severe Weather on mobile